createdAt,value
2017-03-18T00:00:26.969Z,0
2017-03-18T00:01:07.500Z,0
2017-03-18T00:01:47.980Z,0
2017-03-18T00:02:28.517Z,0
2017-03-18T00:03:08.992Z,0
2017-03-18T00:03:49.452Z,0
2017-03-18T00:04:29.934Z,0
2017-03-18T00:05:10.428Z,0
2017-03-18T00:05:50.943Z,0
2017-03-18T00:06:31.476Z,0
2017-03-18T00:07:11.978Z,0
2017-03-18T00:07:52.435Z,0
2017-03-18T00:08:32.964Z,0
2017-03-18T00:09:13.406Z,0
2017-03-18T00:09:53.954Z,0
2017-03-18T00:10:34.450Z,0
2017-03-18T00:11:14.958Z,0
2017-03-18T00:11:55.406Z,0
2017-03-18T00:12:35.922Z,0
2017-03-18T00:13:16.427Z,0
2017-03-18T00:13:56.959Z,0
2017-03-18T00:14:37.435Z,0
2017-03-18T00:15:17.911Z,0
2017-03-18T00:15:58.408Z,0
2017-03-18T00:16:38.892Z,0
2017-03-18T00:17:19.405Z,0
2017-03-18T00:17:59.889Z,0
2017-03-18T00:18:40.393Z,0
2017-03-18T00:19:21.008Z,0
2017-03-18T00:20:01.374Z,0
2017-03-18T00:20:41.886Z,0
2017-03-18T00:21:22.363Z,0
2017-03-18T00:22:02.889Z,0
2017-03-18T00:22:43.458Z,0
2017-03-18T00:23:23.928Z,0
2017-03-18T00:24:04.445Z,0
2017-03-18T00:24:44.982Z,0
2017-03-18T00:25:25.459Z,0
2017-03-18T00:26:05.945Z,0
2017-03-18T00:26:46.487Z,0
2017-03-18T00:27:26.968Z,0
2017-03-18T00:28:07.418Z,0
2017-03-18T00:28:47.956Z,0
2017-03-18T00:29:28.418Z,0
2017-03-18T00:30:08.938Z,0
2017-03-18T00:30:49.424Z,0
2017-03-18T00:31:29.910Z,0
2017-03-18T00:32:10.379Z,0
2017-03-18T00:32:50.922Z,0
2017-03-18T00:33:31.372Z,0
2017-03-18T00:34:11.904Z,0
2017-03-18T00:34:52.370Z,0
2017-03-18T00:35:32.880Z,0
2017-03-18T00:36:13.378Z,0
2017-03-18T00:36:53.830Z,0
2017-03-18T00:37:34.346Z,0
2017-03-18T00:38:14.826Z,0
2017-03-18T00:38:55.383Z,0
2017-03-18T00:39:35.841Z,0
2017-03-18T00:40:16.436Z,0
2017-03-18T00:40:56.902Z,0
2017-03-18T00:41:37.471Z,0
2017-03-18T00:42:17.921Z,0
2017-03-18T00:42:58.400Z,0
2017-03-18T00:43:38.912Z,0
2017-03-18T00:44:19.399Z,0
2017-03-18T00:44:59.903Z,0
2017-03-18T00:45:40.459Z,0
2017-03-18T00:46:20.890Z,0
2017-03-18T00:47:01.443Z,0
2017-03-18T00:47:41.942Z,0
2017-03-18T00:48:23.356Z,0
2017-03-18T00:49:03.816Z,0
2017-03-18T00:49:44.344Z,0
2017-03-18T00:50:24.870Z,0
2017-03-18T00:51:05.386Z,0
2017-03-18T00:51:45.903Z,0
2017-03-18T00:52:26.415Z,0
2017-03-18T00:53:06.855Z,0
2017-03-18T00:53:47.366Z,0
2017-03-18T00:54:27.875Z,0
2017-03-18T00:55:08.354Z,0
2017-03-18T00:55:48.865Z,0
2017-03-18T00:56:29.339Z,0
2017-03-18T00:57:09.813Z,0
2017-03-18T00:57:50.318Z,0
2017-03-18T00:58:30.805Z,0
2017-03-18T00:59:11.318Z,0
2017-03-18T00:59:51.808Z,0
2017-03-18T01:00:32.305Z,0
2017-03-18T01:01:12.789Z,0
2017-03-18T01:01:53.352Z,0
2017-03-18T01:02:33.842Z,0
2017-03-18T01:03:14.274Z,0
2017-03-18T01:03:54.825Z,0
2017-03-18T01:04:35.299Z,0
2017-03-18T01:05:15.825Z,0
2017-03-18T01:05:56.289Z,0
2017-03-18T01:06:36.777Z,0
2017-03-18T01:07:17.379Z,0
2017-03-18T01:07:57.845Z,0
2017-03-18T01:08:38.346Z,0
2017-03-18T01:09:18.824Z,0
2017-03-18T01:09:59.327Z,0
2017-03-18T01:10:39.807Z,0
2017-03-18T01:11:20.289Z,0
2017-03-18T01:12:00.797Z,0
2017-03-18T01:12:41.315Z,0
2017-03-18T01:13:21.761Z,0
2017-03-18T01:14:02.289Z,0
2017-03-18T01:14:42.758Z,0
2017-03-18T01:15:23.300Z,0
2017-03-18T01:16:03.755Z,0
2017-03-18T01:16:44.226Z,0
2017-03-18T01:17:24.842Z,0
2017-03-18T01:18:05.319Z,0
2017-03-18T01:18:45.824Z,0
2017-03-18T01:19:26.309Z,0
2017-03-18T01:20:06.782Z,0
2017-03-18T01:20:47.306Z,0
2017-03-18T01:21:27.762Z,0
2017-03-18T01:22:08.271Z,0
2017-03-18T01:22:48.804Z,0
2017-03-18T01:23:29.245Z,0
2017-03-18T01:24:09.756Z,0
2017-03-18T01:24:50.249Z,0
2017-03-18T01:25:30.720Z,0
2017-03-18T01:26:11.235Z,0
2017-03-18T01:26:51.703Z,0
2017-03-18T01:27:32.232Z,0
2017-03-18T01:28:12.690Z,0
2017-03-18T01:28:53.182Z,0
2017-03-18T01:29:33.740Z,0
2017-03-18T01:30:14.339Z,0
2017-03-18T01:30:54.793Z,0
2017-03-18T01:31:35.296Z,0
2017-03-18T01:32:15.795Z,0
2017-03-18T01:32:56.294Z,0
2017-03-18T01:33:36.785Z,0
2017-03-18T01:34:17.260Z,0
2017-03-18T01:34:57.784Z,0
2017-03-18T01:35:38.334Z,0
2017-03-18T01:36:18.821Z,0
2017-03-18T01:36:59.310Z,0
2017-03-18T01:37:39.782Z,0
2017-03-18T01:38:20.303Z,0
2017-03-18T01:39:00.822Z,0
2017-03-18T01:39:41.333Z,0
2017-03-18T01:40:21.871Z,0
2017-03-18T01:41:02.358Z,0
2017-03-18T01:41:42.841Z,0
2017-03-18T01:42:23.305Z,0
2017-03-18T01:43:03.777Z,0
2017-03-18T01:43:44.307Z,0
2017-03-18T01:44:24.824Z,0
2017-03-18T01:45:05.297Z,0
2017-03-18T01:45:45.823Z,0
2017-03-18T01:46:26.272Z,0
2017-03-18T01:47:06.815Z,0
2017-03-18T01:47:47.270Z,0
2017-03-18T01:48:27.761Z,0
2017-03-18T01:49:08.273Z,0
2017-03-18T01:49:48.725Z,0
2017-03-18T01:50:29.221Z,0
2017-03-18T01:51:09.718Z,0
2017-03-18T01:51:50.213Z,0
2017-03-18T01:52:30.704Z,0
2017-03-18T01:53:11.177Z,0
2017-03-18T01:53:51.643Z,0
2017-03-18T01:54:32.168Z,0
2017-03-18T01:55:12.670Z,0
2017-03-18T01:55:53.197Z,0
2017-03-18T01:56:33.690Z,0
2017-03-18T01:57:14.166Z,0
2017-03-18T01:57:54.667Z,0
2017-03-18T01:58:35.167Z,0
2017-03-18T01:59:15.673Z,0
2017-03-18T01:59:56.143Z,0
2017-03-18T02:00:36.628Z,0
2017-03-18T02:01:17.088Z,0
2017-03-18T02:01:57.622Z,0
2017-03-18T02:02:38.072Z,0
2017-03-18T02:03:18.587Z,0
2017-03-18T02:03:59.087Z,0
2017-03-18T02:04:39.582Z,0
2017-03-18T02:05:20.086Z,0
2017-03-18T02:06:00.567Z,0
2017-03-18T02:06:41.051Z,0
2017-03-18T02:07:21.507Z,0
2017-03-18T02:08:02.046Z,0
2017-03-18T02:08:42.585Z,0
2017-03-18T02:09:23.053Z,0
2017-03-18T02:10:03.611Z,0
2017-03-18T02:10:44.093Z,0
2017-03-18T02:11:24.577Z,0
2017-03-18T02:12:05.070Z,0
2017-03-18T02:12:45.574Z,0
2017-03-18T02:13:26.031Z,0
2017-03-18T02:14:06.528Z,0
2017-03-18T02:14:47.045Z,0
2017-03-18T02:15:27.584Z,0
2017-03-18T02:16:08.035Z,0
2017-03-18T02:16:48.545Z,0
2017-03-18T02:17:29.009Z,0
2017-03-18T02:18:09.514Z,0
2017-03-18T02:18:50.035Z,0
2017-03-18T02:19:30.517Z,0
2017-03-18T02:20:10.981Z,0
2017-03-18T02:20:51.450Z,0
2017-03-18T02:21:31.954Z,0
2017-03-18T02:22:12.417Z,0
2017-03-18T02:22:52.904Z,0
2017-03-18T02:23:33.402Z,0
2017-03-18T02:24:13.926Z,0
2017-03-18T02:24:54.405Z,0
2017-03-18T02:25:34.937Z,0
2017-03-18T02:26:15.404Z,0
2017-03-18T02:26:55.878Z,0
2017-03-18T02:27:36.418Z,0
2017-03-18T02:28:16.879Z,0
2017-03-18T02:28:57.407Z,0
2017-03-18T02:29:37.904Z,0
2017-03-18T02:30:18.397Z,0
2017-03-18T02:30:58.925Z,0
2017-03-18T02:31:39.387Z,0
2017-03-18T02:32:19.900Z,0
2017-03-18T02:33:00.405Z,0
2017-03-18T02:33:40.872Z,0
2017-03-18T02:34:21.349Z,0
2017-03-18T02:35:01.866Z,0
2017-03-18T02:35:42.341Z,0
2017-03-18T02:36:22.885Z,0
2017-03-18T02:37:03.422Z,0
2017-03-18T02:37:43.909Z,0
2017-03-18T02:38:24.417Z,0
2017-03-18T02:39:04.887Z,0
2017-03-18T02:39:45.381Z,0
2017-03-18T02:40:25.835Z,0
2017-03-18T02:41:06.344Z,0
2017-03-18T02:41:46.833Z,0
2017-03-18T02:42:27.320Z,0
2017-03-18T02:43:07.843Z,0
2017-03-18T02:43:48.312Z,0
2017-03-18T02:44:28.830Z,0
2017-03-18T02:45:09.278Z,0
2017-03-18T02:47:27.846Z,0
2017-03-18T02:48:08.373Z,0
2017-03-18T02:48:48.882Z,0
2017-03-18T02:49:29.336Z,0
2017-03-18T02:50:09.795Z,0
2017-03-18T02:50:50.268Z,0
2017-03-18T02:51:30.779Z,0
2017-03-18T02:52:11.273Z,0
2017-03-18T02:52:51.753Z,0
2017-03-18T02:53:32.246Z,0
2017-03-18T02:54:12.709Z,0
2017-03-18T02:54:53.230Z,0
2017-03-18T02:55:33.722Z,0
2017-03-18T02:56:14.210Z,0
2017-03-18T02:56:54.748Z,0
2017-03-18T02:57:35.202Z,0
2017-03-18T02:58:15.680Z,0
2017-03-18T02:58:56.221Z,0
2017-03-18T02:59:36.741Z,0
2017-03-18T03:00:17.259Z,0
2017-03-18T03:00:57.731Z,0
2017-03-18T03:01:38.255Z,0
2017-03-18T03:02:18.774Z,0
2017-03-18T03:02:59.230Z,0
2017-03-18T03:03:39.752Z,0
2017-03-18T03:04:20.237Z,0
2017-03-18T03:05:00.745Z,0
2017-03-18T03:05:41.202Z,0
2017-03-18T03:06:21.758Z,0
2017-03-18T03:07:02.232Z,0
2017-03-18T03:07:42.692Z,0
2017-03-18T03:08:23.200Z,0
2017-03-18T03:09:03.680Z,0
2017-03-18T03:09:44.160Z,0
2017-03-18T03:10:24.684Z,0
2017-03-18T03:11:05.223Z,0
2017-03-18T03:11:45.729Z,0
2017-03-18T03:12:26.240Z,0
2017-03-18T03:13:06.741Z,0
2017-03-18T03:13:47.250Z,0
2017-03-18T03:14:27.718Z,0
2017-03-18T03:15:08.242Z,0
2017-03-18T03:15:48.754Z,0
2017-03-18T03:16:29.233Z,0
2017-03-18T03:17:09.698Z,0
2017-03-18T03:17:50.216Z,0
2017-03-18T03:18:30.666Z,0
2017-03-18T03:19:11.204Z,0
2017-03-18T03:19:51.718Z,0
2017-03-18T03:20:32.186Z,0
2017-03-18T03:21:12.701Z,0
2017-03-18T03:21:53.183Z,0
2017-03-18T03:22:33.641Z,0
2017-03-18T03:23:14.138Z,0
2017-03-18T03:23:54.671Z,0
2017-03-18T03:24:35.161Z,0
2017-03-18T03:25:15.693Z,0
2017-03-18T03:25:56.191Z,0
2017-03-18T03:26:36.687Z,0
2017-03-18T03:27:17.172Z,0
2017-03-18T03:27:57.646Z,0
2017-03-18T03:28:38.161Z,0
2017-03-18T03:29:18.649Z,0
2017-03-18T03:29:59.158Z,0
2017-03-18T03:30:39.628Z,0
2017-03-18T03:31:20.132Z,0
2017-03-18T03:32:00.649Z,0
2017-03-18T03:32:41.131Z,0
2017-03-18T03:33:21.598Z,0
2017-03-18T03:34:02.076Z,0
2017-03-18T03:34:42.616Z,0
2017-03-18T03:35:23.089Z,0
2017-03-18T03:36:03.583Z,0
2017-03-18T03:36:44.059Z,0
2017-03-18T03:37:24.548Z,0
2017-03-18T03:38:05.081Z,0
2017-03-18T03:38:45.595Z,0
2017-03-18T03:39:26.048Z,0
2017-03-18T03:40:06.517Z,0
2017-03-18T03:40:47.017Z,0
2017-03-18T03:41:27.500Z,0
2017-03-18T03:42:08.001Z,0
2017-03-18T03:42:48.724Z,0
2017-03-18T03:43:29.284Z,0
2017-03-18T03:44:09.763Z,0
2017-03-18T03:44:50.224Z,0
2017-03-18T03:45:30.729Z,0
2017-03-18T03:46:11.209Z,0
2017-03-18T03:46:51.680Z,0
2017-03-18T03:47:32.216Z,0
2017-03-18T03:48:12.697Z,0
2017-03-18T03:48:53.216Z,0
2017-03-18T03:49:33.687Z,0
2017-03-18T03:50:14.157Z,0
2017-03-18T03:50:54.647Z,0
2017-03-18T03:51:35.172Z,0
2017-03-18T03:52:15.644Z,0
2017-03-18T03:52:56.107Z,0
2017-03-18T03:53:36.596Z,0
2017-03-18T03:54:17.107Z,0
2017-03-18T03:54:57.604Z,0
2017-03-18T03:55:38.135Z,0
2017-03-18T03:56:18.606Z,0
2017-03-18T03:56:59.099Z,0
2017-03-18T03:57:39.582Z,0
2017-03-18T03:58:20.112Z,0
2017-03-18T03:59:00.571Z,0
2017-03-18T03:59:41.076Z,0
2017-03-18T04:00:21.580Z,0
2017-03-18T04:01:02.050Z,0
2017-03-18T04:01:42.518Z,0
2017-03-18T04:02:23.028Z,0
2017-03-18T04:03:03.497Z,0
2017-03-18T04:03:44.002Z,0
2017-03-18T04:04:24.504Z,0
2017-03-18T04:05:04.966Z,0
2017-03-18T04:05:45.444Z,0
2017-03-18T04:06:25.951Z,0
2017-03-18T04:07:06.450Z,0
2017-03-18T04:07:46.971Z,0
2017-03-18T04:08:27.454Z,0
2017-03-18T04:09:07.942Z,0
2017-03-18T04:09:48.424Z,0
2017-03-18T04:10:28.939Z,0
2017-03-18T04:11:09.482Z,0
2017-03-18T04:11:49.982Z,0
2017-03-18T04:12:30.439Z,0
2017-03-18T04:13:10.910Z,0
2017-03-18T04:13:51.413Z,0
2017-03-18T04:14:31.907Z,0
2017-03-18T04:15:12.367Z,0
2017-03-18T04:15:52.813Z,0
2017-03-18T04:16:33.327Z,0
2017-03-18T04:17:13.835Z,0
2017-03-18T04:17:54.405Z,0
2017-03-18T04:18:34.870Z,0
2017-03-18T04:19:15.359Z,0
2017-03-18T04:19:55.859Z,0
2017-03-18T04:20:36.363Z,0
2017-03-18T04:21:16.826Z,0
2017-03-18T04:21:57.342Z,0
2017-03-18T04:22:37.815Z,0
2017-03-18T04:23:18.331Z,0
2017-03-18T04:23:58.811Z,0
2017-03-18T04:24:39.334Z,0
2017-03-18T04:25:19.798Z,0
2017-03-18T04:26:00.319Z,0
2017-03-18T04:26:40.814Z,0
2017-03-18T04:27:21.327Z,0
2017-03-18T04:28:01.793Z,0
2017-03-18T04:28:42.297Z,0
2017-03-18T04:29:22.752Z,0
2017-03-18T04:30:03.253Z,0
2017-03-18T04:30:43.792Z,0
2017-03-18T04:31:24.276Z,0
2017-03-18T04:32:04.759Z,0
2017-03-18T04:32:45.256Z,0
2017-03-18T04:33:25.765Z,0
2017-03-18T04:34:06.205Z,0
2017-03-18T04:34:46.726Z,0
2017-03-18T04:35:27.189Z,0
2017-03-18T04:36:07.647Z,0
2017-03-18T04:36:48.157Z,0
2017-03-18T04:37:28.612Z,0
2017-03-18T04:38:09.125Z,0
2017-03-18T04:38:49.653Z,0
2017-03-18T04:39:30.160Z,0
2017-03-18T04:40:10.716Z,0
2017-03-18T04:40:51.150Z,0
2017-03-18T04:41:31.637Z,0
2017-03-18T04:42:12.152Z,0
2017-03-18T04:42:52.631Z,0
2017-03-18T04:43:33.133Z,0
2017-03-18T04:44:13.693Z,0
2017-03-18T04:44:54.162Z,0
2017-03-18T04:45:34.731Z,0
2017-03-18T04:46:15.243Z,0
2017-03-18T04:46:55.721Z,0
2017-03-18T04:47:36.229Z,0
2017-03-18T04:48:16.715Z,0
2017-03-18T04:48:57.229Z,0
2017-03-18T04:49:37.698Z,0
2017-03-18T04:50:18.203Z,0
2017-03-18T04:50:58.704Z,0
2017-03-18T04:51:39.188Z,0
2017-03-18T04:52:19.677Z,0
2017-03-18T04:53:00.176Z,0
2017-03-18T04:53:40.701Z,0
2017-03-18T04:54:21.210Z,0
2017-03-18T04:55:01.676Z,0
2017-03-18T04:55:42.158Z,0
2017-03-18T04:56:22.651Z,0
2017-03-18T04:57:03.126Z,0
2017-03-18T04:57:43.624Z,0
2017-03-18T04:58:24.107Z,0
2017-03-18T04:59:04.619Z,0
2017-03-18T04:59:45.150Z,0
2017-03-18T05:00:25.571Z,0
2017-03-18T05:01:06.077Z,0
2017-03-18T05:01:46.602Z,0
2017-03-18T05:02:27.082Z,0
2017-03-18T05:03:07.573Z,0
2017-03-18T05:03:48.078Z,0
2017-03-18T05:04:28.599Z,0
2017-03-18T05:05:09.062Z,0
2017-03-18T05:05:49.551Z,0
2017-03-18T05:06:30.081Z,0
2017-03-18T05:07:10.534Z,0
2017-03-18T05:07:51.108Z,0
2017-03-18T05:08:31.522Z,0
2017-03-18T05:09:12.078Z,0
2017-03-18T05:09:52.538Z,0
2017-03-18T05:10:33.981Z,0
2017-03-18T05:11:14.610Z,0
2017-03-18T05:11:55.098Z,0
2017-03-18T05:12:35.603Z,0
2017-03-18T05:13:16.074Z,0
2017-03-18T05:13:56.554Z,0
2017-03-18T05:14:37.058Z,0
2017-03-18T05:15:17.558Z,0
2017-03-18T05:15:58.080Z,0
2017-03-18T05:16:38.529Z,0
2017-03-18T05:17:18.995Z,0
2017-03-18T05:17:59.567Z,0
2017-03-18T05:18:40.007Z,0
2017-03-18T05:19:20.511Z,0
2017-03-18T05:20:00.979Z,0
2017-03-18T05:20:41.461Z,0
2017-03-18T05:21:21.970Z,0
2017-03-18T05:22:02.406Z,0
2017-03-18T05:22:42.907Z,0
2017-03-18T05:23:23.395Z,0
2017-03-18T05:24:03.868Z,0
2017-03-18T05:24:44.323Z,0
2017-03-18T05:25:24.877Z,0
2017-03-18T05:26:05.336Z,0
2017-03-18T05:26:45.810Z,0
2017-03-18T05:27:26.340Z,0
2017-03-18T05:28:06.762Z,0
2017-03-18T05:28:47.325Z,0
2017-03-18T05:29:27.800Z,0
2017-03-18T05:30:08.352Z,0
2017-03-18T05:30:48.869Z,0
2017-03-18T05:31:29.344Z,0
2017-03-18T05:32:09.824Z,0
2017-03-18T05:32:50.301Z,0
2017-03-18T05:33:30.833Z,0
2017-03-18T05:34:11.272Z,0
2017-03-18T05:34:51.802Z,0
2017-03-18T05:35:32.270Z,0
2017-03-18T05:36:12.751Z,0
2017-03-18T05:36:53.285Z,0
2017-03-18T05:37:33.740Z,0
2017-03-18T05:38:14.220Z,0
2017-03-18T05:38:54.747Z,0
2017-03-18T05:39:35.208Z,0
2017-03-18T05:40:15.683Z,0
2017-03-18T05:40:56.165Z,0
2017-03-18T05:41:36.693Z,0
2017-03-18T05:42:17.207Z,0
2017-03-18T05:42:57.619Z,0
2017-03-18T05:43:38.191Z,0
2017-03-18T05:44:18.639Z,0
2017-03-18T05:44:59.162Z,0
2017-03-18T05:45:39.677Z,0
2017-03-18T05:46:20.182Z,0
2017-03-18T05:47:00.667Z,0
2017-03-18T05:47:41.221Z,0
2017-03-18T05:48:21.704Z,0
2017-03-18T05:49:02.231Z,0
2017-03-18T05:49:42.784Z,0
2017-03-18T05:50:23.253Z,0
2017-03-18T05:51:03.715Z,0
2017-03-18T05:51:44.234Z,0
2017-03-18T05:52:24.712Z,0
2017-03-18T05:53:05.244Z,0
2017-03-18T05:53:45.732Z,0
2017-03-18T05:54:26.200Z,0
2017-03-18T05:55:06.681Z,0
2017-03-18T05:55:47.190Z,0
2017-03-18T05:56:27.663Z,0
2017-03-18T05:57:08.176Z,0
2017-03-18T05:57:48.634Z,0
2017-03-18T05:58:29.182Z,0
2017-03-18T05:59:09.674Z,0
2017-03-18T05:59:50.139Z,0
2017-03-18T06:00:30.935Z,0
2017-03-18T06:01:15.521Z,0
2017-03-18T06:01:55.763Z,5
2017-03-18T06:02:36.282Z,0
2017-03-18T06:03:23.883Z,0
2017-03-18T06:04:04.702Z,0
2017-03-18T06:04:48.350Z,0
2017-03-18T06:05:29.644Z,0
2017-03-18T06:06:17.397Z,0
2017-03-18T06:06:57.913Z,5
2017-03-18T06:07:39.805Z,5
2017-03-18T06:08:19.758Z,5
2017-03-18T06:09:00.247Z,5
2017-03-18T06:09:40.753Z,5
2017-03-18T06:10:21.382Z,5
2017-03-18T06:11:01.864Z,5
2017-03-18T06:11:42.565Z,5
2017-03-18T06:12:22.891Z,5
2017-03-18T06:13:03.582Z,5
2017-03-18T06:13:44.362Z,5
2017-03-18T06:14:24.814Z,5
2017-03-18T06:15:05.432Z,5
2017-03-18T06:15:45.903Z,10
2017-03-18T06:16:26.362Z,10
2017-03-18T06:17:06.919Z,10
2017-03-18T06:17:47.451Z,5
2017-03-18T06:18:27.893Z,10
2017-03-18T06:19:08.396Z,10
2017-03-18T06:19:48.898Z,10
2017-03-18T06:20:29.424Z,10
2017-03-18T06:21:09.940Z,10
2017-03-18T06:21:50.387Z,10
2017-03-18T06:22:30.882Z,10
2017-03-18T06:23:11.406Z,10
2017-03-18T06:23:51.876Z,10
2017-03-18T06:24:32.432Z,10
2017-03-18T06:25:12.911Z,10
2017-03-18T06:25:53.441Z,10
2017-03-18T06:26:33.923Z,15
2017-03-18T06:27:14.405Z,15
2017-03-18T06:27:54.913Z,15
2017-03-18T06:28:35.390Z,15
2017-03-18T06:29:15.856Z,10
2017-03-18T06:29:56.339Z,15
2017-03-18T06:30:36.832Z,15
2017-03-18T06:31:17.399Z,15
2017-03-18T06:31:57.844Z,15
2017-03-18T06:32:38.346Z,15
2017-03-18T06:33:19.028Z,15
2017-03-18T06:33:59.537Z,15
2017-03-18T06:34:40.027Z,15
2017-03-18T06:35:20.498Z,15
2017-03-18T06:36:00.989Z,15
2017-03-18T06:36:41.479Z,15
2017-03-18T06:37:21.994Z,15
2017-03-18T06:38:02.478Z,15
2017-03-18T06:38:42.993Z,15
2017-03-18T06:39:23.480Z,15
2017-03-18T06:40:03.994Z,15
2017-03-18T06:40:44.473Z,15
2017-03-18T06:41:24.937Z,10
2017-03-18T06:42:05.463Z,10
2017-03-18T06:42:45.933Z,10
2017-03-18T06:43:26.425Z,10
2017-03-18T06:44:06.892Z,10
2017-03-18T06:44:47.413Z,15
2017-03-18T06:45:27.911Z,15
2017-03-18T06:46:08.377Z,10
2017-03-18T06:46:48.879Z,10
2017-03-18T06:47:29.398Z,10
2017-03-18T06:48:09.848Z,10
2017-03-18T06:48:50.341Z,15
2017-03-18T06:49:30.829Z,15
2017-03-18T06:50:11.368Z,15
2017-03-18T06:50:51.946Z,15
2017-03-18T06:51:32.372Z,15
2017-03-18T06:52:12.892Z,15
2017-03-18T06:52:53.360Z,10
2017-03-18T06:53:33.882Z,15
2017-03-18T06:54:14.325Z,15
2017-03-18T06:54:54.836Z,15
2017-03-18T06:55:35.275Z,15
2017-03-18T06:56:15.777Z,15
2017-03-18T06:56:56.255Z,15
2017-03-18T06:57:36.839Z,15
2017-03-18T06:58:17.424Z,15
2017-03-18T06:58:57.869Z,15
2017-03-18T06:59:38.315Z,15
2017-03-18T07:00:18.782Z,15
2017-03-18T07:00:59.286Z,15
2017-03-18T07:01:39.767Z,15
2017-03-18T07:02:20.314Z,15
2017-03-18T07:03:00.795Z,15
2017-03-18T07:03:41.297Z,10
2017-03-18T07:04:21.777Z,15
2017-03-18T07:05:02.254Z,15
2017-03-18T07:05:42.761Z,15
2017-03-18T07:06:23.266Z,15
2017-03-18T07:07:03.786Z,15
2017-03-18T07:07:44.274Z,15
2017-03-18T07:08:24.801Z,15
2017-03-18T07:09:05.280Z,15
2017-03-18T07:09:45.853Z,10
2017-03-18T07:10:26.312Z,15
2017-03-18T07:11:06.823Z,10
2017-03-18T07:11:47.308Z,10
2017-03-18T07:12:27.861Z,10
2017-03-18T07:13:08.434Z,10
2017-03-18T07:13:49.032Z,10
2017-03-18T07:14:29.535Z,10
2017-03-18T07:15:10.003Z,10
2017-03-18T07:15:50.563Z,10
2017-03-18T07:16:31.056Z,10
2017-03-18T07:17:11.557Z,10
2017-03-18T07:17:52.104Z,10
2017-03-18T07:18:32.622Z,10
2017-03-18T07:19:13.172Z,10
2017-03-18T07:19:53.667Z,10
2017-03-18T07:20:34.113Z,5
2017-03-18T07:21:14.609Z,10
2017-03-18T07:21:55.105Z,10
2017-03-18T07:22:35.695Z,10
2017-03-18T07:23:16.209Z,10
2017-03-18T07:23:56.891Z,10
2017-03-18T07:24:37.421Z,10
2017-03-18T07:25:17.868Z,10
2017-03-18T07:25:58.393Z,10
2017-03-18T07:26:38.896Z,10
2017-03-18T07:27:19.368Z,10
2017-03-18T07:27:59.889Z,10
2017-03-18T07:28:40.385Z,10
2017-03-18T07:29:20.896Z,10
2017-03-18T07:30:01.393Z,10
2017-03-18T07:30:41.905Z,10
2017-03-18T07:31:22.326Z,10
2017-03-18T07:32:02.904Z,10
2017-03-18T07:32:43.382Z,10
2017-03-18T07:33:23.915Z,10
2017-03-18T07:34:04.424Z,5
2017-03-18T07:34:44.938Z,10
2017-03-18T07:35:25.488Z,10
2017-03-18T07:36:06.081Z,10
2017-03-18T07:36:46.529Z,10
2017-03-18T07:37:27.008Z,15
2017-03-18T07:38:07.535Z,10
2017-03-18T07:38:47.998Z,10
2017-03-18T07:39:28.512Z,10
2017-03-18T07:40:08.950Z,10
2017-03-18T07:40:49.414Z,10
2017-03-18T07:41:29.922Z,10
2017-03-18T07:42:10.435Z,10
2017-03-18T07:42:50.890Z,15
2017-03-18T07:43:31.451Z,10
2017-03-18T07:44:11.894Z,15
2017-03-18T07:44:52.410Z,15
2017-03-18T07:45:32.871Z,15
2017-03-18T07:46:13.359Z,15
2017-03-18T07:46:53.899Z,15
2017-03-18T07:47:34.388Z,15
2017-03-18T07:48:14.928Z,15
2017-03-18T07:48:55.478Z,15
2017-03-18T07:49:35.967Z,15
2017-03-18T07:50:16.544Z,10
2017-03-18T07:50:56.994Z,15
2017-03-18T07:51:37.507Z,15
2017-03-18T07:52:17.923Z,15
2017-03-18T07:52:58.434Z,15
2017-03-18T07:53:39.030Z,15
2017-03-18T07:54:19.524Z,15
2017-03-18T07:55:00.029Z,15
2017-03-18T07:55:40.520Z,15
2017-03-18T07:56:21.003Z,15
2017-03-18T07:57:01.451Z,15
2017-03-18T07:57:41.962Z,15
2017-03-18T07:58:22.567Z,15
2017-03-18T07:59:03.032Z,10
2017-03-18T07:59:43.560Z,10
2017-03-18T08:00:24.020Z,15
2017-03-18T08:01:05.947Z,10
2017-03-18T08:01:46.440Z,15
2017-03-18T08:02:26.905Z,10
2017-03-18T08:03:07.495Z,15
2017-03-18T08:03:49.003Z,20
2017-03-18T08:04:29.572Z,15
2017-03-18T08:05:10.038Z,15
2017-03-18T08:05:50.558Z,15
2017-03-18T08:06:31.095Z,15
2017-03-18T08:07:11.612Z,15
2017-03-18T08:07:52.074Z,15
2017-03-18T08:08:32.536Z,15
2017-03-18T08:09:13.072Z,15
2017-03-18T08:09:53.762Z,20
2017-03-18T08:10:34.111Z,15
2017-03-18T08:11:14.624Z,20
2017-03-18T08:11:55.104Z,20
2017-03-18T08:12:35.655Z,20
2017-03-18T08:13:16.289Z,20
2017-03-18T08:13:56.844Z,10
2017-03-18T08:14:37.364Z,15
2017-03-18T08:15:17.905Z,15
2017-03-18T08:15:58.355Z,15
2017-03-18T08:16:38.945Z,20
2017-03-18T08:17:19.408Z,20
2017-03-18T08:17:59.923Z,20
2017-03-18T08:18:40.351Z,15
2017-03-18T08:19:20.897Z,20
2017-03-18T08:20:01.413Z,20
2017-03-18T08:20:41.912Z,20
2017-03-18T08:21:22.511Z,20
2017-03-18T08:22:03.002Z,15
2017-03-18T08:22:44.032Z,15
2017-03-18T08:23:24.405Z,20
2017-03-18T08:24:04.900Z,25
2017-03-18T08:24:45.429Z,20
2017-03-18T08:25:25.904Z,20
2017-03-18T08:26:06.467Z,15
2017-03-18T08:26:47.004Z,15
2017-03-18T08:27:27.484Z,15
2017-03-18T08:28:08.024Z,15
2017-03-18T08:28:48.513Z,20
2017-03-18T08:29:29.890Z,20
2017-03-18T08:30:10.423Z,25
2017-03-18T08:30:50.890Z,30
2017-03-18T08:31:31.398Z,25
2017-03-18T08:32:11.921Z,30
2017-03-18T08:32:52.388Z,25
2017-03-18T08:33:32.947Z,25
2017-03-18T08:34:13.407Z,35
2017-03-18T08:34:53.876Z,30
2017-03-18T08:35:34.350Z,30
2017-03-18T08:36:14.862Z,30
2017-03-18T08:36:55.362Z,30
2017-03-18T08:37:36.005Z,25
2017-03-18T08:38:16.646Z,35
2017-03-18T08:38:56.968Z,30
2017-03-18T08:39:37.487Z,25
2017-03-18T08:40:18.090Z,30
2017-03-18T08:42:59.043Z,35
2017-03-18T08:43:39.308Z,35
2017-03-18T08:44:19.827Z,30
2017-03-18T08:45:00.316Z,30
2017-03-18T08:45:40.852Z,35
2017-03-18T08:46:21.370Z,35
2017-03-18T08:47:01.871Z,35
2017-03-18T08:47:43.484Z,35
2017-03-18T08:48:23.952Z,35
2017-03-18T08:49:49.891Z,30
2017-03-18T08:50:30.250Z,30
2017-03-18T08:51:10.788Z,35
2017-03-18T08:51:51.196Z,30
2017-03-18T08:52:31.706Z,30
2017-03-18T08:53:12.281Z,30
2017-03-18T08:53:52.741Z,30
2017-03-18T08:54:33.845Z,30
2017-03-18T08:55:14.829Z,30
2017-03-18T08:55:55.534Z,30
2017-03-18T08:56:35.879Z,35
2017-03-18T08:57:16.531Z,40
2017-03-18T08:57:57.042Z,35
2017-03-18T08:58:37.601Z,40
2017-03-18T08:59:18.050Z,50
2017-03-18T08:59:58.539Z,40
2017-03-18T09:00:39.062Z,40
2017-03-18T09:01:19.604Z,35
2017-03-18T09:02:00.054Z,45
2017-03-18T09:02:40.602Z,45
2017-03-18T09:03:21.124Z,45
2017-03-18T09:04:01.898Z,40
2017-03-18T09:04:42.591Z,45
2017-03-18T09:05:23.098Z,40
2017-03-18T09:06:03.592Z,45
2017-03-18T09:06:44.477Z,40
2017-03-18T09:07:24.909Z,45
2017-03-18T09:08:05.583Z,35
2017-03-18T09:08:46.028Z,35
2017-03-18T09:09:26.492Z,30
2017-03-18T09:10:07.036Z,30
2017-03-18T09:10:47.501Z,35
2017-03-18T09:11:28.014Z,35
2017-03-18T09:12:08.517Z,30
2017-03-18T09:12:48.948Z,35
2017-03-18T09:13:29.439Z,35
2017-03-18T09:14:09.942Z,35
2017-03-18T09:14:50.440Z,35
2017-03-18T09:15:30.940Z,35
2017-03-18T09:16:11.372Z,35
2017-03-18T09:16:51.894Z,35
2017-03-18T09:17:32.373Z,40
2017-03-18T09:18:12.898Z,40
2017-03-18T09:18:53.345Z,35
2017-03-18T09:19:33.852Z,40
2017-03-18T09:20:14.340Z,45
2017-03-18T09:20:54.800Z,40
2017-03-18T09:21:35.304Z,45
2017-03-18T09:22:15.804Z,45
2017-03-18T09:22:56.266Z,45
2017-03-18T09:23:36.820Z,45
2017-03-18T09:24:17.367Z,45
2017-03-18T09:24:57.850Z,45
2017-03-18T09:25:38.375Z,45
2017-03-18T09:26:18.876Z,40
2017-03-18T09:26:59.406Z,40
2017-03-18T09:27:39.881Z,40
2017-03-18T09:28:20.439Z,45
2017-03-18T09:29:01.023Z,45
2017-03-18T09:29:41.530Z,50
2017-03-18T09:30:22.019Z,45
2017-03-18T09:31:02.522Z,40
2017-03-18T09:31:43.036Z,40
2017-03-18T09:32:23.473Z,35
2017-03-18T09:33:03.976Z,35
2017-03-18T09:33:44.438Z,30
2017-03-18T09:34:24.984Z,30
2017-03-18T09:35:05.418Z,30
2017-03-18T09:35:45.963Z,30
2017-03-18T09:36:26.418Z,30
2017-03-18T09:37:06.968Z,30
2017-03-18T09:37:47.517Z,35
2017-03-18T09:38:28.009Z,35
2017-03-18T09:39:08.477Z,35
2017-03-18T09:39:48.987Z,35
2017-03-18T09:40:29.439Z,35
2017-03-18T09:41:09.942Z,40
2017-03-18T09:41:50.637Z,45
2017-03-18T09:42:31.354Z,45
2017-03-18T09:43:11.762Z,45
2017-03-18T09:43:52.196Z,40
2017-03-18T09:44:32.834Z,40
2017-03-18T09:45:13.240Z,40
2017-03-18T09:45:53.818Z,45
2017-03-18T09:46:35.163Z,40
2017-03-18T09:47:15.675Z,45
2017-03-18T09:47:56.112Z,40
2017-03-18T09:48:36.574Z,40
2017-03-18T09:49:17.168Z,35
2017-03-18T09:49:57.596Z,35
2017-03-18T09:50:38.042Z,35
2017-03-18T09:51:18.570Z,45
2017-03-18T09:51:59.000Z,50
2017-03-18T09:52:39.555Z,55
2017-03-18T09:53:19.999Z,50
2017-03-18T09:54:00.528Z,50
2017-03-18T09:54:41.023Z,50
2017-03-18T09:55:21.472Z,50
2017-03-18T09:56:02.115Z,55